createdAt,value
2018-05-07T00:02:17.202Z,100865.14
2018-05-07T00:04:46.279Z,100869.62
2018-05-07T00:07:14.848Z,100862.50
2018-05-07T00:09:43.412Z,100859.79
2018-05-07T00:12:13.019Z,100857.91
2018-05-07T00:14:41.501Z,100859.38
2018-05-07T00:17:10.027Z,100851.70
2018-05-07T00:19:41.702Z,100857.13
2018-05-07T00:22:10.354Z,100863.48
2018-05-07T00:24:38.978Z,100858.52
2018-05-07T00:27:10.070Z,100860.63
2018-05-07T00:29:38.788Z,100862.34
2018-05-07T00:32:07.427Z,100855.95
2018-05-07T00:34:35.930Z,100859.23
2018-05-07T00:37:04.456Z,100849.67
2018-05-07T00:39:33.509Z,100850.63
2018-05-07T00:42:07.990Z,100850.77
2018-05-07T00:44:36.947Z,100852.67
2018-05-07T00:47:08.556Z,100851.77
2018-05-07T00:49:37.103Z,100858.53
2018-05-07T00:52:06.371Z,100861.02
2018-05-07T00:54:40.252Z,100859.51
2018-05-07T00:57:08.910Z,100861.97
2018-05-07T00:59:38.970Z,100863.17
2018-05-07T01:02:07.661Z,100865.13
2018-05-07T01:04:36.260Z,100864.41
2018-05-07T01:07:10.233Z,100862.31
2018-05-07T01:09:38.953Z,100865.45
2018-05-07T01:12:07.494Z,100867.78
2018-05-07T01:14:36.540Z,100868.50
2018-05-07T01:17:05.380Z,100866.55
2018-05-07T01:19:33.991Z,100870.58
2018-05-07T01:22:03.602Z,100868.95
2018-05-07T01:24:32.186Z,100875.14
2018-05-07T01:27:00.762Z,100866.17
2018-05-07T01:29:36.636Z,100867.40
2018-05-07T01:32:06.539Z,100861.72
2018-05-07T01:34:35.738Z,100863.29
2018-05-07T01:37:04.634Z,100863.56
2018-05-07T01:39:33.176Z,100856.71
2018-05-07T01:42:01.654Z,100851.11
2018-05-07T01:44:30.574Z,100854.20
2018-05-07T01:46:59.333Z,100851.93
2018-05-07T01:49:27.845Z,100853.83
2018-05-07T01:51:56.833Z,100849.74
2018-05-07T01:54:27.028Z,100847.58
2018-05-07T01:56:55.515Z,100846.09
2018-05-07T01:59:24.429Z,100845.08
2018-05-07T02:01:53.400Z,100843.84
2018-05-07T02:04:28.182Z,100841.86
2018-05-07T02:06:56.710Z,100834.80
2018-05-07T02:09:25.299Z,100846.13
2018-05-07T02:11:54.266Z,100839.28
2018-05-07T02:14:22.767Z,100838.91
2018-05-07T02:16:51.359Z,100839.34
2018-05-07T02:19:20.238Z,100834.27
2018-05-07T02:21:48.828Z,100830.17
2018-05-07T02:24:17.921Z,100828.46
2018-05-07T02:26:57.360Z,100830.45
2018-05-07T02:29:25.998Z,100827.67
2018-05-07T02:31:57.655Z,100826.00
2018-05-07T02:34:26.283Z,100823.09
2018-05-07T02:36:59.063Z,100819.23
2018-05-07T02:39:27.636Z,100817.61
2018-05-07T02:41:56.174Z,100815.78
2018-05-07T02:44:26.363Z,100818.76
2018-05-07T02:46:54.934Z,100822.61
2018-05-07T02:49:23.452Z,100822.80
2018-05-07T02:51:55.226Z,100823.91
2018-05-07T02:54:23.834Z,100817.01
2018-05-07T02:56:52.370Z,100813.63
2018-05-07T03:01:59.178Z,100813.91
2018-05-07T03:04:27.668Z,100816.84
2018-05-07T03:06:56.568Z,100819.33
2018-05-07T03:09:29.909Z,100815.62
2018-05-07T03:11:58.474Z,100813.81
2018-05-07T03:14:27.571Z,100815.45
2018-05-07T03:16:56.173Z,100806.37
2018-05-07T03:19:28.815Z,100809.03
2018-05-07T03:21:57.740Z,100806.89
2018-05-07T03:24:26.270Z,100799.52
2018-05-07T03:26:54.906Z,100805.74
2018-05-07T03:29:24.165Z,100801.16
2018-05-07T03:31:52.704Z,100799.58
2018-05-07T03:34:21.372Z,100803.81
2018-05-07T03:36:52.460Z,100805.32
2018-05-07T03:39:20.984Z,100798.89
2018-05-07T03:41:49.478Z,100798.08
2018-05-07T03:44:24.555Z,100799.23
2018-05-07T03:46:53.247Z,100807.38
2018-05-07T03:49:21.885Z,100801.42
2018-05-07T03:51:50.865Z,100811.41
2018-05-07T03:54:24.516Z,100808.02
2018-05-07T03:56:53.134Z,100811.67
2018-05-07T03:59:28.809Z,100815.44
2018-05-07T04:01:57.707Z,100814.20
2018-05-07T04:04:26.794Z,100820.97
2018-05-07T04:06:56.037Z,100821.09
2018-05-07T04:09:30.554Z,100815.10
2018-05-07T04:11:59.332Z,100820.11
2018-05-07T04:14:27.838Z,100812.56
2018-05-07T04:19:13.673Z,100820.10
2018-05-07T04:21:47.555Z,100814.28
2018-05-07T04:24:17.530Z,100819.41
2018-05-07T04:26:46.221Z,100822.28
2018-05-07T04:29:16.044Z,100815.64
2018-05-07T04:31:45.019Z,100821.51
2018-05-07T04:34:13.880Z,100823.30
2018-05-07T04:36:42.599Z,100824.33
2018-05-07T04:39:17.623Z,100826.25
2018-05-07T04:41:46.129Z,100826.56
2018-05-07T04:44:14.639Z,100818.64
2018-05-07T04:46:54.096Z,100824.63
2018-05-07T04:49:25.970Z,100830.11
2018-05-07T04:51:56.041Z,100829.17
2018-05-07T04:54:24.688Z,100826.59
2018-05-07T04:56:53.240Z,100827.80
2018-05-07T04:59:22.231Z,100833.33
2018-05-07T05:01:50.825Z,100829.64
2018-05-07T05:04:19.662Z,100833.98
2018-05-07T05:06:53.258Z,100834.62
2018-05-07T05:09:21.816Z,100827.37
2018-05-07T05:11:50.392Z,100826.06
2018-05-07T05:14:19.397Z,100826.63
2018-05-07T05:16:52.999Z,100823.11
2018-05-07T05:19:21.964Z,100831.29
2018-05-07T05:21:52.068Z,100831.30
2018-05-07T05:24:21.156Z,100828.60
2018-05-07T05:26:54.809Z,100826.93
2018-05-07T05:29:24.125Z,100833.83
2018-05-07T05:31:53.223Z,100837.44
2018-05-07T05:34:22.831Z,100831.65
2018-05-07T05:36:51.801Z,100836.09
2018-05-07T05:39:20.411Z,100839.05
2018-05-07T05:41:49.294Z,100835.70
2018-05-07T05:44:18.333Z,100836.50
2018-05-07T05:46:46.890Z,100833.66
2018-05-07T05:49:15.561Z,100835.64
2018-05-07T05:51:47.937Z,100836.70
2018-05-07T05:54:16.575Z,100836.66
2018-05-07T05:56:45.139Z,100834.53
2018-05-07T05:59:14.714Z,100833.72
2018-05-07T06:01:43.267Z,100833.42
2018-05-07T06:04:12.013Z,100833.59
2018-05-07T06:06:40.961Z,100834.45
2018-05-07T06:09:09.942Z,100832.80
2018-05-07T06:11:38.599Z,100833.91
2018-05-07T06:14:07.582Z,100824.90
2018-05-07T06:16:36.268Z,100832.24
2018-05-07T06:19:04.903Z,100831.77
2018-05-07T06:21:33.879Z,100838.55
2018-05-07T06:24:05.617Z,100835.60
2018-05-07T06:26:34.143Z,100832.55
2018-05-07T06:29:03.170Z,100836.02
2018-05-07T06:31:32.198Z,100836.59
2018-05-07T06:34:00.785Z,100836.16
2018-05-07T06:36:32.791Z,100831.38
2018-05-07T06:39:01.561Z,100836.02
2018-05-07T06:41:33.545Z,100840.14
2018-05-07T06:44:03.447Z,100840.66
2018-05-07T06:46:32.007Z,100835.50
2018-05-07T06:49:00.582Z,100839.07
2018-05-07T06:53:51.255Z,100839.26
2018-05-07T06:56:20.635Z,100834.20
2018-05-07T06:58:49.720Z,100834.41
2018-05-07T07:01:21.281Z,100840.06
2018-05-07T07:03:49.797Z,100826.47
2018-05-07T07:06:18.689Z,100834.50
2018-05-07T07:08:47.305Z,100832.75
2018-05-07T07:11:16.018Z,100830.97
2018-05-07T07:13:45.676Z,100834.09
2018-05-07T07:16:14.577Z,100833.80
2018-05-07T07:18:43.995Z,100833.55
2018-05-07T07:21:19.577Z,100833.33
2018-05-07T07:23:48.097Z,100834.27
2018-05-07T07:26:23.462Z,100835.43
2018-05-07T07:28:52.015Z,100826.80
2018-05-07T07:31:21.095Z,100822.38
2018-05-07T07:33:49.986Z,100827.63
2018-05-07T07:36:18.985Z,100828.91
2018-05-07T07:38:47.488Z,100828.66
2018-05-07T07:41:17.126Z,100828.59
2018-05-07T07:43:45.913Z,100819.30
2018-05-07T07:46:14.767Z,100816.45
2018-05-07T07:48:43.632Z,100814.09
2018-05-07T07:51:12.251Z,100809.88
2018-05-07T07:53:40.853Z,100815.85
2018-05-07T07:56:09.655Z,100810.33
2018-05-07T07:58:38.153Z,100808.45
2018-05-07T08:01:06.714Z,100812.95
2018-05-07T08:03:40.963Z,100811.20
2018-05-07T08:06:09.479Z,100817.59
2018-05-07T08:08:41.815Z,100800.27
2018-05-07T08:11:10.479Z,100805.12
2018-05-07T08:13:41.511Z,100808.02
2018-05-07T08:16:10.035Z,100799.00
2018-05-07T08:18:38.618Z,100792.67
2018-05-07T08:23:47.035Z,100794.83
2018-05-07T08:26:18.784Z,100795.97
2018-05-07T08:28:47.356Z,100807.42
2018-05-07T08:31:15.968Z,100801.19
2018-05-07T08:33:44.837Z,100797.45
2018-05-07T08:36:13.508Z,100798.58
2018-05-07T08:41:21.445Z,100793.60
2018-05-07T08:43:50.027Z,100790.37
2018-05-07T08:46:18.911Z,100786.58
2018-05-07T08:48:53.586Z,100784.12
2018-05-07T08:51:22.155Z,100777.64
2018-05-07T08:53:50.696Z,100775.80
2018-05-07T08:56:19.531Z,100781.53
2018-05-07T08:58:48.371Z,100777.81
2018-05-07T09:01:23.917Z,100784.46
2018-05-07T09:03:52.443Z,100779.98
2018-05-07T09:06:26.842Z,100775.87
2018-05-07T09:08:58.057Z,100773.41
2018-05-07T09:11:26.906Z,100764.54
2018-05-07T09:13:55.782Z,100764.50
2018-05-07T09:16:24.324Z,100767.02
2018-05-07T09:18:54.925Z,100757.70
2018-05-07T09:21:23.750Z,100767.12
2018-05-07T09:23:52.270Z,100764.32
2018-05-07T09:26:20.876Z,100758.60
2018-05-07T09:28:49.646Z,100747.26
2018-05-07T09:31:23.212Z,100744.33
2018-05-07T09:33:52.322Z,100744.27
2018-05-07T09:36:20.948Z,100731.20
2018-05-07T09:38:53.013Z,100739.45
2018-05-07T09:41:21.546Z,100731.25
2018-05-07T09:43:50.214Z,100723.66
2018-05-07T09:46:24.460Z,100728.05
2018-05-07T09:48:53.051Z,100732.69
2018-05-07T09:51:21.606Z,100723.28
2018-05-07T09:53:50.410Z,100730.92
2018-05-07T09:56:19.137Z,100722.89
2018-05-07T09:59:03.563Z,100720.47
2018-05-07T10:01:33.163Z,100720.04
2018-05-07T10:04:02.682Z,100721.04
2018-05-07T10:06:31.748Z,100725.88
2018-05-07T10:09:00.567Z,100710.01
2018-05-07T10:11:29.120Z,100703.81
2018-05-07T10:13:57.658Z,100704.20
2018-05-07T10:16:26.495Z,100697.13
2018-05-07T10:18:54.991Z,100693.46
2018-05-07T10:21:23.526Z,100693.28
2018-05-07T10:23:52.354Z,100691.92
2018-05-07T10:26:25.342Z,100687.89
2018-05-07T10:28:53.932Z,100680.76
2018-05-07T10:31:25.362Z,100685.62
2018-05-07T10:33:54.047Z,100680.85
2018-05-07T10:36:22.611Z,100678.94
2018-05-07T10:39:02.495Z,100671.41
2018-05-07T10:41:31.019Z,100668.06
2018-05-07T10:44:00.129Z,100663.25
2018-05-07T10:46:28.654Z,100662.02
2018-05-07T10:48:57.200Z,100660.59
2018-05-07T10:51:26.737Z,100649.69
2018-05-07T10:53:55.332Z,100647.06
2018-05-07T10:56:23.804Z,100642.72
2018-05-07T10:58:58.025Z,100636.19
2018-05-07T11:01:26.546Z,100635.95
2018-05-07T11:03:55.686Z,100630.83
2018-05-07T11:06:24.505Z,100633.77
2018-05-07T11:08:53.078Z,100632.59
2018-05-07T11:11:21.644Z,100629.03
2018-05-07T11:13:51.796Z,100627.02
2018-05-07T11:32:43.390Z,100605.31
2018-05-07T11:35:12.493Z,100607.02
2018-05-07T11:37:42.171Z,100591.88
2018-05-07T11:40:10.679Z,100591.38
2018-05-07T11:42:45.779Z,100585.41
2018-05-07T11:45:14.912Z,100591.14
2018-05-07T11:47:43.552Z,100587.60
2018-05-07T11:50:12.620Z,100580.45
2018-05-07T11:52:41.123Z,100585.78
2018-05-07T11:55:09.703Z,100582.91
2018-05-07T11:57:38.520Z,100578.38
2018-05-07T12:00:14.211Z,100575.94
2018-05-07T12:02:42.873Z,100570.48
2018-05-07T12:05:11.420Z,100556.61
2018-05-07T12:07:40.142Z,100560.11
2018-05-07T12:10:09.195Z,100562.47
2018-05-07T12:12:37.840Z,100561.97
2018-05-07T12:15:07.084Z,100562.34
2018-05-07T12:17:36.026Z,100559.22
2018-05-07T12:20:06.729Z,100556.57
2018-05-07T12:22:35.260Z,100540.86
2018-05-07T12:28:05.054Z,100544.29
2018-05-07T12:30:34.212Z,100546.58
2018-05-07T12:33:02.863Z,100549.09
2018-05-07T12:35:31.446Z,100541.25
2018-05-07T12:38:00.400Z,100537.00
2018-05-07T12:40:29.251Z,100532.37
2018-05-07T12:42:57.867Z,100531.61
2018-05-07T12:45:27.137Z,100532.48
2018-05-07T12:47:59.491Z,100530.89
2018-05-07T12:50:28.136Z,100515.63
2018-05-07T12:52:57.042Z,100513.85
2018-05-07T12:55:25.839Z,100512.82
2018-05-07T12:57:54.753Z,100513.33
2018-05-07T13:00:23.661Z,100506.45
2018-05-07T13:02:52.229Z,100502.41
2018-05-07T13:05:20.907Z,100510.88
2018-05-07T13:07:50.894Z,100499.75
2018-05-07T13:10:25.313Z,100490.01
2018-05-07T13:12:54.131Z,100483.34
2018-05-07T13:15:23.135Z,100482.73
2018-05-07T13:17:51.700Z,100482.75
2018-05-07T13:20:22.682Z,100472.17
2018-05-07T13:22:51.612Z,100466.67
2018-05-07T13:25:20.948Z,100471.36
2018-05-07T13:27:49.555Z,100471.71
2018-05-07T13:30:18.555Z,100464.92
2018-05-07T13:32:47.230Z,100454.68
2018-05-07T13:35:26.519Z,100454.52
2018-05-07T13:37:55.706Z,100446.60
2018-05-07T13:40:24.378Z,100446.36
2018-05-07T13:42:52.973Z,100439.59
2018-05-07T13:45:22.917Z,100447.82
2018-05-07T13:47:51.578Z,100437.78
2018-05-07T13:50:20.328Z,100427.47
2018-05-07T13:52:50.415Z,100425.30
2018-05-07T13:55:29.084Z,100419.78
2018-05-07T14:11:06.216Z,100410.91
2018-05-07T14:13:35.494Z,100411.30
2018-05-07T14:16:05.042Z,100415.46
2018-05-07T14:18:33.613Z,100403.10
2018-05-07T14:21:02.994Z,100402.14
2018-05-07T14:23:33.207Z,100410.21
2018-05-07T14:26:03.596Z,100405.63
2018-05-07T14:28:32.419Z,100410.77
2018-05-07T14:31:01.681Z,100396.29
2018-05-07T14:33:30.423Z,100402.59
2018-05-07T14:35:59.224Z,100390.80
2018-05-07T14:38:27.748Z,100387.98
2018-05-07T14:40:56.263Z,100389.07
2018-05-07T14:43:25.326Z,100387.83
2018-05-07T14:45:58.746Z,100380.45
2018-05-07T14:48:28.258Z,100390.73
2018-05-07T14:50:58.061Z,100383.30
2018-05-07T14:53:30.291Z,100380.70
2018-05-07T14:55:58.782Z,100376.25
2018-05-07T14:58:27.574Z,100384.55
2018-05-07T15:01:01.035Z,100370.99
2018-05-07T15:03:29.584Z,100362.86
2018-05-07T15:05:58.342Z,100366.66
2018-05-07T15:08:26.923Z,100362.36
2018-05-07T15:10:55.524Z,100356.02
2018-05-07T15:13:27.202Z,100356.98
2018-05-07T15:15:55.706Z,100363.21
2018-05-07T15:18:28.035Z,100355.22
2018-05-07T15:20:56.775Z,100354.41
2018-05-07T15:23:25.527Z,100352.97
2018-05-07T15:25:54.322Z,100345.75
2018-05-07T15:28:22.910Z,100340.67
2018-05-07T15:30:51.447Z,100347.24
2018-05-07T15:33:20.569Z,100353.08
2018-05-07T15:35:49.086Z,100355.60
2018-05-07T15:38:18.149Z,100337.23
2018-05-07T15:43:27.238Z,100337.25
2018-05-07T15:46:06.707Z,100335.50
2018-05-07T15:48:35.298Z,100334.16
2018-05-07T15:51:04.272Z,100325.58
2018-05-07T15:53:32.822Z,100328.91
2018-05-07T15:56:03.932Z,100326.83
2018-05-07T15:58:33.036Z,100320.53
2018-05-07T16:01:01.647Z,100324.27
2018-05-07T16:03:30.170Z,100314.15
2018-05-07T16:05:59.087Z,100319.41
2018-05-07T16:08:32.554Z,100306.34
2018-05-07T16:11:01.465Z,100305.36
2018-05-07T16:13:30.446Z,100309.36
2018-05-07T16:15:59.034Z,100308.04
2018-05-07T16:18:27.610Z,100311.21
2018-05-07T16:20:56.660Z,100311.20
2018-05-07T16:23:25.139Z,100321.87
2018-05-07T16:25:53.701Z,100309.98
2018-05-07T16:28:23.772Z,100312.53
2018-05-07T16:30:52.717Z,100315.00
2018-05-07T16:33:22.960Z,100309.88
2018-05-07T16:35:52.933Z,100303.02
2018-05-07T16:38:23.684Z,100297.16
2018-05-07T16:40:52.321Z,100300.66
2018-05-07T16:43:21.238Z,100300.30
2018-05-07T16:45:49.889Z,100302.20
2018-05-07T16:48:18.479Z,100301.59
2018-05-07T16:50:47.550Z,100301.73
2018-05-07T16:53:22.756Z,100297.37
2018-05-07T16:55:51.281Z,100303.28
2018-05-07T16:58:24.074Z,100301.63
2018-05-07T17:00:52.961Z,100301.37
2018-05-07T17:03:21.526Z,100307.12
2018-05-07T17:05:54.323Z,100307.23
2018-05-07T17:08:22.979Z,100297.97
2018-05-07T17:10:51.886Z,100301.42
2018-05-07T17:13:26.695Z,100303.70
2018-05-07T17:15:55.379Z,100294.62
2018-05-07T17:18:23.993Z,100297.45
2018-05-07T17:20:53.019Z,100294.24
2018-05-07T17:23:22.163Z,100301.41
2018-05-07T17:25:50.905Z,100294.07
2018-05-07T17:28:19.509Z,100295.67
2018-05-07T17:30:48.411Z,100297.16
2018-05-07T17:33:22.260Z,100293.45
2018-05-07T17:35:51.177Z,100291.70
2018-05-07T17:38:20.445Z,100292.46
2018-05-07T17:40:49.013Z,100289.97
2018-05-07T17:43:18.319Z,100296.85
2018-05-07T17:48:07.916Z,100300.20
2018-05-07T17:50:36.577Z,100301.63
2018-05-07T17:53:05.796Z,100297.77
2018-05-07T17:55:34.468Z,100297.73
2018-05-07T17:58:09.928Z,100299.67
2018-05-07T18:00:38.817Z,100296.41
2018-05-07T18:03:07.531Z,100305.17
2018-05-07T18:05:38.738Z,100300.88
2018-05-07T18:08:07.645Z,100305.57
2018-05-07T18:10:41.181Z,100306.05
2018-05-07T18:13:09.791Z,100304.36
2018-05-07T18:15:41.157Z,100305.64
2018-05-07T18:18:09.612Z,100304.38
2018-05-07T18:20:44.377Z,100303.32
2018-05-07T18:23:13.750Z,100301.63
2018-05-07T18:25:45.513Z,100304.34
2018-05-07T18:28:14.140Z,100305.27
2018-05-07T18:30:49.000Z,100304.80
2018-05-07T18:33:18.137Z,100301.33
2018-05-07T18:35:46.775Z,100303.17
2018-05-07T18:38:16.988Z,100301.53
2018-05-07T18:40:46.022Z,100304.47
2018-05-07T18:43:14.863Z,100303.47
2018-05-07T18:45:44.017Z,100305.31
2018-05-07T18:48:12.717Z,100304.67
2018-05-07T18:50:41.250Z,100306.69
2018-05-07T18:53:10.475Z,100301.76
2018-05-07T18:55:39.075Z,100304.48
2018-05-07T18:58:12.232Z,100303.14
2018-05-07T19:00:41.215Z,100306.97
2018-05-07T19:03:13.458Z,100310.41
2018-05-07T19:05:42.057Z,100311.30
2018-05-07T19:08:10.919Z,100310.97
2018-05-07T19:10:39.435Z,100314.67
2018-05-07T19:13:08.019Z,100315.37
2018-05-07T19:15:36.883Z,100314.39
2018-05-07T19:18:06.313Z,100315.06
2018-05-07T19:20:34.851Z,100313.93
2018-05-07T19:23:04.350Z,100315.78
2018-05-07T19:25:32.957Z,100319.98
2018-05-07T19:28:01.582Z,100322.91
2018-05-07T19:30:31.088Z,100321.84
2018-05-07T19:32:59.716Z,100320.95
2018-05-07T19:35:28.269Z,100315.20
2018-05-07T19:37:57.989Z,100311.52
2018-05-07T19:40:26.558Z,100314.41
2018-05-07T19:42:55.111Z,100309.80
2018-05-07T19:45:24.179Z,100312.19
2018-05-07T19:47:52.759Z,100308.69
2018-05-07T19:50:21.440Z,100305.66
2018-05-07T19:55:24.983Z,100303.67
2018-05-07T19:57:53.511Z,100306.21
2018-05-07T20:00:36.906Z,100302.79
2018-05-07T20:05:38.903Z,100298.91
2018-05-07T20:08:07.824Z,100295.41
2018-05-07T20:10:41.359Z,100297.91
2018-05-07T20:13:14.169Z,100292.48
2018-05-07T20:15:44.655Z,100290.33
2018-05-07T20:18:13.646Z,100298.63
2018-05-07T20:20:45.480Z,100285.86
2018-05-07T20:23:19.997Z,100289.95
2018-05-07T20:25:49.447Z,100284.26
2018-05-07T20:28:19.457Z,100283.29
2018-05-07T20:30:48.055Z,100280.55
2018-05-07T20:33:16.818Z,100282.19
2018-05-07T20:35:45.605Z,100285.64
2018-05-07T20:38:14.345Z,100284.66
2018-05-07T20:40:42.891Z,100286.34
2018-05-07T20:43:12.760Z,100283.09
2018-05-07T20:45:41.366Z,100284.37
2018-05-07T20:48:09.987Z,100286.67
2018-05-07T20:50:42.280Z,100281.91
2018-05-07T20:53:10.847Z,100283.62
2018-05-07T20:55:40.278Z,100281.05
2018-05-07T20:58:09.292Z,100281.16
2018-05-07T21:00:38.522Z,100277.97
2018-05-07T21:03:07.210Z,100279.22
2018-05-07T21:05:36.060Z,100280.32
2018-05-07T21:08:05.943Z,100278.06
2018-05-07T21:10:34.500Z,100275.63
2018-05-07T21:13:03.744Z,100274.91
2018-05-07T21:15:35.086Z,100275.30
2018-05-07T21:18:04.567Z,100275.52
2018-05-07T21:20:35.141Z,100276.78
2018-05-07T21:23:03.847Z,100279.25
2018-05-07T21:25:36.394Z,100281.16
2018-05-07T21:28:06.787Z,100276.21
2018-05-07T21:30:36.558Z,100277.67
2018-05-07T21:33:05.049Z,100277.31
2018-05-07T21:35:33.842Z,100282.02
2018-05-07T21:38:04.392Z,100282.66
2018-05-07T21:40:33.427Z,100286.33
2018-05-07T21:43:02.251Z,100280.83
2018-05-07T21:45:30.839Z,100284.43
2018-05-07T21:47:59.379Z,100276.53
2018-05-07T21:50:28.509Z,100282.06
2018-05-07T21:52:57.208Z,100278.54
2018-05-07T21:55:25.805Z,100275.68
2018-05-07T21:57:54.671Z,100278.96
2018-05-07T22:00:24.972Z,100279.28
2018-05-07T22:02:53.547Z,100279.80
2018-05-07T22:05:22.412Z,100279.27
2018-05-07T22:07:51.095Z,100272.98
2018-05-07T22:10:25.409Z,100274.73
2018-05-07T22:12:53.890Z,100274.06
2018-05-07T22:15:25.183Z,100274.50
2018-05-07T22:17:55.505Z,100276.56
2018-05-07T22:20:28.905Z,100275.38
2018-05-07T22:22:57.737Z,100278.41
2018-05-07T22:25:27.177Z,100276.39
2018-05-07T22:28:01.283Z,100281.47
2018-05-07T22:30:30.618Z,100278.95
2018-05-07T22:33:01.096Z,100274.07
2018-05-07T22:35:29.692Z,100279.00
2018-05-07T22:37:58.477Z,100279.07
2018-05-07T22:43:06.135Z,100274.72
2018-05-07T22:45:39.079Z,100269.00
2018-05-07T22:48:13.448Z,100274.94
2018-05-07T22:50:42.313Z,100270.00
2018-05-07T22:53:10.830Z,100270.27
2018-05-07T22:55:45.172Z,100267.84
2018-05-07T22:58:15.011Z,100269.34
2018-05-07T23:00:43.594Z,100267.73
2018-05-07T23:03:14.734Z,100264.00
2018-05-07T23:05:43.303Z,100263.94
2018-05-07T23:08:15.644Z,100261.66
2018-05-07T23:10:45.116Z,100261.34
2018-05-07T23:13:20.128Z,100252.84
2018-05-07T23:15:49.099Z,100253.76
2018-05-07T23:18:18.852Z,100260.93
2018-05-07T23:20:47.488Z,100250.41
2018-05-07T23:23:16.511Z,100248.80
2018-05-07T23:25:45.106Z,100248.48
2018-05-07T23:28:18.960Z,100251.08
2018-05-07T23:30:47.910Z,100243.42
2018-05-07T23:35:55.719Z,100240.45
2018-05-07T23:38:24.339Z,100241.57
2018-05-07T23:40:52.887Z,100242.74
2018-05-07T23:43:22.054Z,100237.98
2018-05-07T23:45:50.704Z,100240.39
2018-05-07T23:48:19.519Z,100238.47
2018-05-07T23:50:48.726Z,100230.09
2018-05-07T23:53:17.284Z,100229.88
2018-05-07T23:55:45.857Z,100229.31
2018-05-07T23:58:15.135Z,100224.16
